Time;durP1;ratioP1;P1;durP2;ratioP2;P2;SDS_P1;SDS_P2;PMS_P1;PMS_P2;Temp;Humidity;BMP_temperature;BMP_pressure;BME280_temperature;BME280_humidity;BME280_pressure;Samples;Min_cycle;Max_cycle;Signal;HPM_P1;HPM_P2
2023/03/04 00:00:09;;;;;;;24.05;6.18;;;;;;;3.43;95.29;102534.31;5054287;28;20058;-68
2023/03/04 00:02:36;;;;;;;19.80;5.05;;;;;;;3.42;94.93;102539.25;5054190;28;20132;-69
2023/03/04 00:05:02;;;;;;;26.58;6.28;;;;;;;3.41;94.81;102550.25;5053922;28;20068;-69
2023/03/04 00:07:28;;;;;;;25.92;6.43;;;;;;;3.48;94.11;102537.22;5054744;28;20079;-69
2023/03/04 00:09:53;;;;;;;22.63;5.47;;;;;;;3.49;93.82;102544.13;5053989;28;20041;-69
2023/03/04 00:12:18;;;;;;;19.90;5.43;;;;;;;3.44;95.12;102540.28;5054269;28;20021;-69
2023/03/04 00:14:43;;;;;;;21.63;5.82;;;;;;;3.43;95.17;102541.97;5054611;28;20037;-69
2023/03/04 00:17:09;;;;;;;24.08;5.70;;;;;;;3.43;96.00;102543.59;5053378;28;20116;-69
2023/03/04 00:19:34;;;;;;;30.90;6.38;;;;;;;3.44;95.54;102545.38;5054039;28;20032;-69
2023/03/04 00:22:00;;;;;;;25.52;6.10;;;;;;;3.43;95.91;102538.50;5054185;28;20372;-69
2023/03/04 00:24:25;;;;;;;29.40;6.28;;;;;;;3.42;96.57;102536.69;5053562;28;20055;-69
2023/03/04 00:26:51;;;;;;;29.83;6.25;;;;;;;3.44;96.17;102536.06;5053885;28;20029;-69
2023/03/04 00:29:16;;;;;;;21.52;5.63;;;;;;;3.50;95.20;102528.06;5053887;28;20527;-69
2023/03/04 00:31:41;;;;;;;28.80;6.38;;;;;;;3.48;95.71;102534.69;5053405;28;20025;-69
2023/03/04 00:34:07;;;;;;;27.83;5.78;;;;;;;3.52;95.10;102531.63;5053303;28;20033;-70
2023/03/04 00:36:32;;;;;;;23.23;6.20;;;;;;;3.53;95.02;102532.53;5053895;28;20035;-69
2023/03/04 00:38:57;;;;;;;24.50;5.07;;;;;;;3.54;94.83;102531.75;5053173;28;20025;-69
2023/03/04 00:41:22;;;;;;;24.50;6.07;;;;;;;3.55;94.88;102534.47;5053497;28;20028;-69
2023/03/04 00:43:48;;;;;;;25.42;5.22;;;;;;;3.55;94.88;102528.44;5053173;28;20112;-69
2023/03/04 00:46:13;;;;;;;26.85;5.50;;;;;;;3.56;94.59;102528.56;5053288;28;20037;-69
2023/03/04 00:48:39;;;;;;;23.35;5.57;;;;;;;3.57;94.61;102527.81;5053618;28;20021;-68
2023/03/04 00:51:04;;;;;;;27.52;5.68;;;;;;;3.57;94.53;102529.50;5052803;28;20029;-69
2023/03/04 00:53:29;;;;;;;28.92;5.32;;;;;;;3.58;94.88;102534.72;5053490;28;20029;-69
2023/03/04 00:55:55;;;;;;;29.38;5.38;;;;;;;3.58;94.88;102534.72;5053404;28;20032;-69
2023/03/04 00:58:20;;;;;;;25.80;6.55;;;;;;;3.57;95.11;102527.81;5052884;28;20036;-69
2023/03/04 01:00:45;;;;;;;19.23;4.70;;;;;;;3.58;95.12;102533.81;5053044;28;20056;-68
2023/03/04 01:03:11;;;;;;;26.10;5.47;;;;;;;3.60;94.24;102529.72;5053150;28;20041;-69
2023/03/04 01:05:36;;;;;;;24.35;5.50;;;;;;;3.61;94.24;102529.84;5052792;28;20049;-69
2023/03/04 01:08:02;;;;;;;21.35;4.80;;;;;;;3.61;94.51;102534.97;5053007;28;20099;-69
2023/03/04 01:10:27;;;;;;;27.92;5.43;;;;;;;3.60;94.54;102533.19;5053399;28;20024;-68
2023/03/04 01:12:52;;;;;;;20.45;4.85;;;;;;;3.59;94.86;102533.94;5052674;28;20383;-69
2023/03/04 01:15:18;;;;;;;29.92;5.53;;;;;;;3.59;95.10;102533.94;5052700;28;20483;-69
2023/03/04 01:17:44;;;;;;;28.23;5.55;;;;;;;3.58;95.33;102534.72;5053081;28;20041;-68
2023/03/04 01:20:10;;;;;;;22.10;5.55;;;;;;;3.61;94.76;102534.97;5052213;28;20044;-69
2023/03/04 01:22:36;;;;;;;27.05;4.88;;;;;;;3.60;95.36;102540.84;5052798;28;20020;-68
2023/03/04 01:25:02;;;;;;;21.88;4.88;;;;;;;3.61;94.75;102529.84;5052722;28;20465;-69
2023/03/04 01:27:27;;;;;;;19.15;4.75;;;;;;;3.60;94.60;102528.09;5052486;28;20028;-69
2023/03/04 01:29:52;;;;;;;25.23;4.97;;;;;;;3.64;94.03;102526.69;5052757;28;20048;-69
2023/03/04 01:32:18;;;;;;;24.13;4.93;;;;;;;3.65;93.60;102523.38;5052294;28;20021;-69
2023/03/04 01:34:43;;;;;;;22.67;4.60;;;;;;;3.65;93.91;102527.59;5052363;28;20110;-69
2023/03/04 01:37:08;;;;;;;24.70;5.35;;;;;;;3.65;93.84;102525.03;5052470;28;20043;-69
2023/03/04 01:39:34;;;;;;;25.70;5.22;;;;;;;3.62;94.01;102524.00;5053045;28;20021;-68
2023/03/04 01:41:59;;;;;;;24.73;4.90;;;;;;;3.60;94.69;102522.09;5051935;28;20127;-69
2023/03/04 01:44:25;;;;;;;20.98;4.78;;;;;;;3.60;94.45;102520.44;5052638;28;20040;-69
2023/03/04 01:46:53;;;;;;;18.45;4.57;;;;;;;3.62;94.16;102511.25;5052815;28;20044;-69
2023/03/04 01:49:19;;;;;;;24.30;5.45;;;;;;;3.64;94.50;102513.94;5051708;28;20103;-69
2023/03/04 01:51:52;;;;;;;21.23;4.60;;;;;;;3.66;94.11;102506.44;5052876;28;20063;-69
2023/03/04 01:54:19;;;;;;;23.42;4.82;;;;;;;3.67;93.47;102508.19;5051876;28;20452;-69
2023/03/04 01:56:46;;;;;;;20.48;4.25;;;;;;;3.67;93.46;102503.09;5052489;28;20090;-69
2023/03/04 01:59:16;;;;;;;26.10;4.93;;;;;;;3.66;93.88;102496.22;5052410;28;20051;-69
2023/03/04 02:01:44;;;;;;;19.08;4.10;;;;;;;3.62;94.33;102500.19;5051737;28;20041;-69
2023/03/04 02:04:10;;;;;;;21.85;4.45;;;;;;;3.61;94.09;102493.28;5052130;28;20029;-69
2023/03/04 02:06:38;;;;;;;24.30;5.07;;;;;;;3.59;94.38;102497.34;5052698;28;20013;-69
2023/03/04 02:09:04;;;;;;;22.92;4.53;;;;;;;3.61;94.04;102491.63;5051679;28;20072;-69
2023/03/04 02:11:30;;;;;;;17.98;4.15;;;;;;;3.59;94.49;102482.97;5052242;28;20025;-69
2023/03/04 02:13:55;;;;;;;18.67;4.20;;;;;;;3.58;94.48;102488.81;5052159;28;20061;-69
2023/03/04 02:16:21;;;;;;;20.20;4.38;;;;;;;3.57;94.88;102487.03;5051940;28;20029;-69
2023/03/04 02:18:46;;;;;;;19.80;4.43;;;;;;;3.55;95.21;102483.47;5052329;28;20171;-69
2023/03/04 02:21:31;;;;;;;21.88;4.90;;;;;;;3.55;95.28;102488.56;5052311;28;20029;-68
2023/03/04 02:24:19;;;;;;;24.23;4.35;;;;;;;3.53;95.78;102482.44;5051596;28;20461;-69
2023/03/04 02:26:46;;;;;;;19.95;4.50;;;;;;;3.54;95.74;102489.31;5052092;28;20115;-69
2023/03/04 02:29:13;;;;;;;19.08;4.32;;;;;;;3.53;95.53;102476.47;5051512;28;20033;-69
2023/03/04 02:31:47;;;;;;;19.90;4.45;;;;;;;3.55;95.55;102478.38;5052201;28;20082;-69
2023/03/04 02:34:16;;;;;;;20.50;4.68;;;;;;;3.53;96.09;102479.88;5051951;28;20112;-69
2023/03/04 02:36:42;;;;;;;19.77;3.90;;;;;;;3.53;95.96;102479.88;5051649;28;20446;-69
2023/03/04 02:39:19;;;;;;;26.65;4.90;;;;;;;3.54;97.03;102478.22;5051675;28;20495;-69
2023/03/04 02:41:50;;;;;;;20.05;4.57;;;;;;;3.51;96.84;102477.97;5052494;28;20036;-69
2023/03/04 02:44:18;;;;;;;25.67;4.57;;;;;;;3.52;96.87;102480.66;5053046;28;20024;-69
2023/03/04 02:46:44;;;;;;;20.42;4.50;;;;;;;3.52;96.70;102473.00;5055898;28;20025;-69
2023/03/04 02:49:10;;;;;;;20.40;4.55;;;;;;;3.51;97.03;102471.25;5055727;28;20074;-69
2023/03/04 02:51:35;;;;;;;21.52;4.57;;;;;;;3.51;96.73;102466.13;5055250;28;20017;-69
2023/03/04 02:54:01;;;;;;;18.95;4.45;;;;;;;3.51;96.66;102463.59;5055339;28;20386;-69
2023/03/04 02:56:26;;;;;;;24.38;4.38;;;;;;;3.53;96.04;102458.63;5056034;28;20070;-69
2023/03/04 02:58:51;;;;;;;21.25;4.50;;;;;;;3.53;96.61;102456.94;5055451;28;20017;-68
2023/03/04 03:01:17;;;;;;;17.38;3.92;;;;;;;3.53;96.63;102458.63;5055081;28;20492;-69
2023/03/04 03:03:42;;;;;;;20.88;4.57;;;;;;;3.56;96.09;102461.41;5055807;28;20464;-69
2023/03/04 03:06:07;;;;;;;21.33;4.75;;;;;;;3.54;96.64;102451.09;5054769;28;20071;-69
2023/03/04 03:08:33;;;;;;;22.30;4.30;;;;;;;3.56;96.42;102451.22;5055331;28;20484;-69
2023/03/04 03:10:58;;;;;;;18.67;4.50;;;;;;;3.56;96.12;102452.09;5055310;28;20107;-69
2023/03/04 03:13:23;;;;;;;17.50;3.95;;;;;;;3.55;96.17;102447.78;5055123;28;20511;-69
2023/03/04 03:15:49;;;;;;;15.90;3.50;;;;;;;3.55;96.34;102452.88;5055330;28;20453;-69
2023/03/04 03:18:14;;;;;;;20.45;4.30;;;;;;;3.55;96.61;102446.88;5055190;28;20039;-69
2023/03/04 03:20:40;;;;;;;16.30;3.95;;;;;;;3.54;96.53;102451.09;5054638;28;20472;-69
2023/03/04 03:23:06;;;;;;;23.70;4.40;;;;;;;3.55;96.88;102446.88;5054863;28;20024;-69
2023/03/04 03:25:31;;;;;;;16.70;4.45;;;;;;;3.53;97.18;102454.41;5054946;28;20036;-69
2023/03/04 03:27:57;;;;;;;21.38;4.60;;;;;;;3.55;96.73;102449.41;5054853;28;20032;-69
2023/03/04 03:30:22;;;;;;;18.38;4.05;;;;;;;3.54;97.40;102452.72;5055350;28;20033;-69
2023/03/04 03:32:47;;;;;;;18.15;4.53;;;;;;;3.52;97.28;102442.41;5054790;28;20021;-69
2023/03/04 03:35:13;;;;;;;22.65;5.43;;;;;;;3.52;97.07;102444.06;5054692;28;20025;-69
2023/03/04 03:37:38;;;;;;;18.27;4.50;;;;;;;3.50;97.28;102451.59;5055005;28;20036;-69
2023/03/04 03:40:04;;;;;;;19.45;3.80;;;;;;;3.53;95.79;102441.66;5054452;28;20029;-70
2023/03/04 03:42:29;;;;;;;20.00;4.15;;;;;;;3.54;95.42;102443.44;5054899;28;20543;-69
2023/03/04 03:44:54;;;;;;;21.65;4.70;;;;;;;3.55;95.53;102442.69;5054766;28;20025;-69
2023/03/04 03:47:20;;;;;;;20.92;4.10;;;;;;;3.54;95.78;102440.91;5054533;28;20135;-69
2023/03/04 03:49:45;;;;;;;20.35;5.22;;;;;;;3.53;96.31;102440.78;5054603;28;20035;-69
2023/03/04 03:52:11;;;;;;;21.52;4.20;;;;;;;3.52;96.09;102438.97;5054540;28;20100;-69
2023/03/04 03:54:36;;;;;;;26.92;4.90;;;;;;;3.51;95.85;102439.75;5054028;28;20108;-69
2023/03/04 03:57:01;;;;;;;24.95;4.20;;;;;;;3.50;96.06;102437.94;5054169;28;20048;-69
2023/03/04 03:59:27;;;;;;;13.77;3.85;;;;;;;3.48;96.42;102436.94;5054865;28;20051;-69
2023/03/04 04:01:52;;;;;;;21.50;4.43;;;;;;;3.45;96.45;102438.47;5053905;28;20047;-68
2023/03/04 04:04:18;;;;;;;18.25;4.15;;;;;;;3.44;96.67;102431.56;5054090;28;20056;-69
2023/03/04 04:06:43;;;;;;;20.10;4.30;;;;;;;3.44;96.56;102435.78;5054575;28;20017;-69
2023/03/04 04:09:08;;;;;;;22.17;4.07;;;;;;;3.42;97.36;102444.94;5053688;28;20074;-68
2023/03/04 04:11:33;;;;;;;20.15;3.83;;;;;;;3.43;96.68;102444.19;5054336;28;20033;-69
2023/03/04 04:13:59;;;;;;;16.70;4.03;;;;;;;3.41;97.18;102438.09;5054250;28;20439;-69
2023/03/04 04:16:24;;;;;;;18.50;4.47;;;;;;;3.42;96.56;102444.94;5053768;28;20421;-69
2023/03/04 04:18:49;;;;;;;16.75;4.00;;;;;;;3.42;96.66;102448.41;5054286;28;20087;-69
2023/03/04 04:21:15;;;;;;;17.98;4.57;;;;;;;3.41;96.59;102443.19;5053888;28;20021;-69
2023/03/04 04:23:40;;;;;;;17.63;4.05;;;;;;;3.42;96.56;102445.84;5053755;28;20104;-69
2023/03/04 04:26:05;;;;;;;16.63;4.00;;;;;;;3.44;95.46;102439.22;5053877;28;20024;-69
2023/03/04 04:28:31;;;;;;;18.83;3.75;;;;;;;3.46;94.61;102437.69;5054053;28;20135;-69
2023/03/04 04:30:56;;;;;;;17.23;4.22;;;;;;;3.45;94.84;102435.03;5052927;28;20041;-69
2023/03/04 04:33:22;;;;;;;19.60;3.97;;;;;;;3.47;94.90;102438.59;5054005;28;20064;-69
2023/03/04 04:35:47;;;;;;;17.85;3.78;;;;;;;3.48;94.56;102439.50;5053286;28;20029;-69
2023/03/04 04:38:12;;;;;;;17.98;3.80;;;;;;;3.45;95.48;102440.13;5053574;28;20027;-69
2023/03/04 04:40:38;;;;;;;18.08;3.55;;;;;;;3.46;95.00;102439.38;5054130;28;20029;-69
2023/03/04 04:43:03;;;;;;;23.65;4.43;;;;;;;3.45;94.95;102441.00;5053157;28;20037;-69
2023/03/04 04:45:28;;;;;;;20.52;4.32;;;;;;;3.42;96.22;102440.75;5053735;28;20044;-69
2023/03/04 04:47:56;;;;;;;18.80;4.15;;;;;;;3.40;96.61;102444.81;5053630;28;20497;-69
2023/03/04 04:50:22;;;;;;;15.32;4.43;;;;;;;3.42;95.75;102447.50;5053205;28;20167;-69
2023/03/04 04:52:48;;;;;;;21.48;4.65;;;;;;;3.40;96.05;102452.47;5053426;28;20566;-69
2023/03/04 04:55:13;;;;;;;18.95;3.85;;;;;;;3.37;96.76;102447.13;5053522;28;20060;-69
2023/03/04 04:57:38;;;;;;;17.10;3.88;;;;;;;3.38;96.31;102446.38;5053296;28;20025;-68
2023/03/04 05:00:05;;;;;;;17.52;3.95;;;;;;;3.38;96.10;102443.81;5052802;28;20024;-68
2023/03/04 05:02:35;;;;;;;19.03;4.00;;;;;;;3.36;96.72;102450.44;5053470;28;20385;-69
2023/03/04 05:05:00;;;;;;;17.70;3.80;;;;;;;3.38;96.46;102450.56;5052582;28;20275;-69
2023/03/04 05:07:26;;;;;;;16.35;3.50;;;;;;;3.37;96.30;102453.84;5052654;28;20025;-69
2023/03/04 05:09:51;;;;;;;18.08;4.38;;;;;;;3.38;96.48;102453.09;5053478;28;20420;-68
2023/03/04 05:12:16;;;;;;;20.15;4.47;;;;;;;3.37;96.63;102453.84;5052680;28;20021;-68
2023/03/04 05:14:42;;;;;;;19.38;4.47;;;;;;;3.35;96.70;102453.72;5053235;28;20025;-69
2023/03/04 05:17:07;;;;;;;24.02;4.05;;;;;;;3.35;96.77;102451.19;5052858;28;20032;-69
2023/03/04 05:19:32;;;;;;;18.52;4.38;;;;;;;3.35;96.95;102447.75;5052658;28;20112;-68
2023/03/04 05:21:57;;;;;;;17.17;3.83;;;;;;;3.33;97.44;102450.19;5052475;28;20029;-69
2023/03/04 05:24:23;;;;;;;15.82;4.00;;;;;;;3.35;96.82;102452.84;5053412;28;20476;-69
2023/03/04 05:26:48;;;;;;;21.48;3.92;;;;;;;3.36;96.78;102449.56;5052574;28;20021;-69
2023/03/04 05:29:13;;;;;;;19.95;4.13;;;;;;;3.36;96.71;102444.47;5052474;28;20743;-69
2023/03/04 05:31:38;;;;;;;18.30;4.03;;;;;;;3.33;97.25;102441.63;5053430;28;20021;-69
2023/03/04 05:34:04;;;;;;;17.08;4.03;;;;;;;3.34;97.18;102448.50;5051872;28;20365;-69
2023/03/04 05:36:29;;;;;;;19.95;4.30;;;;;;;3.34;97.12;102445.97;5052975;28;20048;-68
2023/03/04 05:38:54;;;;;;;21.33;4.35;;;;;;;3.33;97.76;102449.28;5052521;28;20032;-69
2023/03/04 05:41:21;;;;;;;15.95;4.15;;;;;;;3.29;97.81;102449.03;5052234;28;20116;-69
2023/03/04 05:43:48;;;;;;;15.05;4.03;;;;;;;3.31;97.54;102450.81;5053164;28;20025;-69
2023/03/04 05:46:15;;;;;;;15.27;4.07;;;;;;;3.29;97.41;102449.03;5051973;28;20132;-68
2023/03/04 05:48:42;;;;;;;17.25;4.10;;;;;;;3.31;97.90;102453.38;5052569;28;20031;-69
2023/03/04 05:51:07;;;;;;;19.17;4.15;;;;;;;3.31;97.79;102455.91;5052510;28;20032;-69
2023/03/04 05:53:35;;;;;;;13.88;3.33;;;;;;;3.32;97.83;102455.13;5052274;28;20025;-69
2023/03/04 05:56:06;;;;;;;19.77;4.45;;;;;;;3.33;98.09;102469.66;5052509;28;20083;-68
2023/03/04 05:58:31;;;;;;;13.35;3.60;;;;;;;3.34;98.30;102456.16;5052650;28;20079;-69
2023/03/04 06:00:59;;;;;;;20.33;4.13;;;;;;;3.32;99.13;102467.88;5051615;28;20053;-69
2023/03/04 06:03:25;;;;;;;15.77;3.85;;;;;;;3.31;99.44;102461.00;5052286;28;20131;-68
2023/03/04 06:05:50;;;;;;;16.45;3.63;;;;;;;3.30;99.43;102460.09;5052795;28;20104;-68
2023/03/04 06:08:15;;;;;;;16.33;3.78;;;;;;;3.30;100.00;102460.09;5051831;28;20389;-67
2023/03/04 06:10:41;;;;;;;16.25;3.35;;;;;;;3.27;100.00;102465.81;5052089;28;20032;-67
2023/03/04 06:13:07;;;;;;;17.10;3.47;;;;;;;3.28;100.00;102465.06;5052213;28;20029;-67
2023/03/04 06:15:33;;;;;;;17.77;3.47;;;;;;;3.26;100.00;102464.03;5051949;28;20036;-67
2023/03/04 06:17:58;;;;;;;15.10;3.40;;;;;;;3.26;100.00;102460.59;5052901;28;20025;-67
2023/03/04 06:20:23;;;;;;;15.45;3.67;;;;;;;3.24;100.00;102459.56;5056762;28;20472;-67
2023/03/04 06:22:48;;;;;;;16.80;3.67;;;;;;;3.25;100.00;102457.19;5056129;28;20029;-67
2023/03/04 06:25:14;;;;;;;11.98;3.05;;;;;;;3.26;100.00;102469.13;5056020;28;20490;-68
2023/03/04 06:27:40;;;;;;;16.25;3.10;;;;;;;3.25;100.00;102461.38;5056522;28;20029;-68
2023/03/04 06:30:06;;;;;;;12.10;3.28;;;;;;;3.23;100.00;102471.44;5055212;28;20025;-68
2023/03/04 06:32:31;;;;;;;15.45;4.32;;;;;;;3.23;100.00;102468.88;5056440;28;20032;-68
2023/03/04 06:34:57;;;;;;;19.00;4.82;;;;;;;3.21;100.00;102472.94;5055912;28;20025;-68
2023/03/04 06:37:22;;;;;;;15.45;4.13;;;;;;;3.22;100.00;102472.19;5055628;28;20088;-69
2023/03/04 06:39:47;;;;;;;13.93;4.22;;;;;;;3.22;100.00;102478.94;5056367;28;20104;-69
2023/03/04 06:42:13;;;;;;;16.45;3.60;;;;;;;3.22;100.00;102472.19;5055880;28;20029;-68
2023/03/04 06:44:38;;;;;;;13.50;3.88;;;;;;;3.23;100.00;102478.19;5055303;28;20047;-68
2023/03/04 06:47:03;;;;;;;13.25;4.18;;;;;;;3.21;100.00;102478.03;5055814;28;20067;-68
2023/03/04 06:49:29;;;;;;;15.48;4.75;;;;;;;3.21;100.00;102475.50;5055462;28;20375;-69
2023/03/04 06:51:54;;;;;;;15.77;3.92;;;;;;;3.21;100.00;102483.13;5055661;28;20063;-68
2023/03/04 06:54:19;;;;;;;12.10;3.88;;;;;;;3.21;100.00;102477.16;5056028;28;20028;-68
2023/03/04 06:56:45;;;;;;;22.15;6.80;;;;;;;3.22;100.00;102478.94;5055119;28;20094;-68
2023/03/04 06:59:10;;;;;;;11.85;4.00;;;;;;;3.22;100.00;102487.47;5055205;28;20036;-69
2023/03/04 07:01:36;;;;;;;13.55;3.97;;;;;;;3.22;100.00;102487.47;5055400;28;20045;-68
2023/03/04 07:04:02;;;;;;;17.27;4.28;;;;;;;3.21;100.00;102490.78;5055017;28;20028;-68
2023/03/04 07:06:28;;;;;;;14.23;3.78;;;;;;;3.21;100.00;102487.34;5055690;28;20099;-68
2023/03/04 07:08:54;;;;;;;19.42;4.03;;;;;;;3.23;100.00;102481.63;5055558;28;20021;-68
2023/03/04 07:11:20;;;;;;;16.15;3.70;;;;;;;3.24;100.00;102491.06;5055091;28;20033;-68
2023/03/04 07:13:47;;;;;;;13.90;3.60;;;;;;;3.24;100.00;102483.41;5055745;28;20017;-68
2023/03/04 07:16:15;;;;;;;12.63;4.00;;;;;;;3.27;100.00;102486.22;5055312;28;20033;-68
2023/03/04 07:18:40;;;;;;;16.33;3.65;;;;;;;3.31;100.00;102481.41;5055203;28;20037;-69
2023/03/04 07:21:06;;;;;;;15.65;4.13;;;;;;;3.34;100.00;102489.28;5055092;28;20036;-68
2023/03/04 07:23:32;;;;;;;14.43;3.63;;;;;;;3.38;100.00;102494.78;5055519;28;20021;-68
2023/03/04 07:25:58;;;;;;;12.45;3.58;;;;;;;3.42;100.00;102490.81;5054503;28;20027;-68
2023/03/04 07:28:23;;;;;;;13.45;4.32;;;;;;;3.48;100.00;102501.56;5055088;28;20067;-68
2023/03/04 07:30:48;;;;;;;14.95;3.80;;;;;;;3.49;100.00;102498.25;5054320;28;20029;-68
2023/03/04 07:33:17;;;;;;;18.25;4.70;;;;;;;3.53;100.00;102505.38;5053979;28;20025;-71
2023/03/04 07:35:42;;;;;;;11.18;3.38;;;;;;;3.56;100.00;102499.66;5055293;28;20052;-68
2023/03/04 07:38:08;;;;;;;14.07;4.13;;;;;;;3.58;100.00;102501.56;5054999;28;20056;-68
2023/03/04 07:40:33;;;;;;;15.32;4.45;;;;;;;3.61;100.00;102499.25;5054270;28;20079;-68
2023/03/04 07:42:58;;;;;;;17.25;3.95;;;;;;;3.66;100.00;102516.63;5054570;28;20013;-69
2023/03/04 07:45:24;;;;;;;14.20;4.20;;;;;;;3.66;100.00;102509.88;5054799;28;20033;-68
2023/03/04 07:47:50;;;;;;;13.10;3.78;;;;;;;3.68;100.00;102504.88;5054113;28;20032;-68
2023/03/04 07:50:16;;;;;;;14.15;4.20;;;;;;;3.70;100.00;102518.66;5054588;28;20083;-68
2023/03/04 07:52:43;;;;;;;16.77;4.43;;;;;;;3.76;100.00;102516.66;5054366;28;20021;-68
2023/03/04 07:55:10;;;;;;;16.52;4.55;;;;;;;3.82;100.00;102514.59;5054208;28;20032;-68
2023/03/04 07:57:39;;;;;;;14.70;4.68;;;;;;;3.86;100.00;102515.75;5054611;28;20040;-68
2023/03/04 08:00:05;;;;;;;19.25;5.20;;;;;;;3.92;100.00;102521.38;5053924;28;20029;-68
2023/03/04 08:02:30;;;;;;;14.88;4.18;;;;;;;3.98;100.00;102524.44;5053896;28;20048;-68
2023/03/04 08:04:56;;;;;;;19.80;4.57;;;;;;;4.03;100.00;102519.69;5054461;28;20464;-68
2023/03/04 08:07:22;;;;;;;16.15;4.63;;;;;;;4.01;100.00;102521.25;5054149;28;20465;-68
2023/03/04 08:09:47;;;;;;;22.75;4.72;;;;;;;4.10;100.00;102522.00;5054166;28;20480;-68
2023/03/04 08:12:13;;;;;;;20.45;5.25;;;;;;;4.11;100.00;102524.69;5053998;28;20028;-68
2023/03/04 08:14:38;;;;;;;20.35;4.68;;;;;;;4.18;100.00;102520.97;5053805;28;20029;-68
2023/03/04 08:17:03;;;;;;;18.50;4.57;;;;;;;4.21;100.00;102521.22;5053848;28;20420;-68
2023/03/04 08:19:29;;;;;;;16.10;4.50;;;;;;;4.34;100.00;102523.13;5054194;28;20036;-68
2023/03/04 08:21:54;;;;;;;14.40;4.22;;;;;;;4.43;100.00;102523.00;5053523;28;20457;-68
2023/03/04 08:24:19;;;;;;;17.48;4.15;;;;;;;4.46;100.00;102523.25;5054000;28;20100;-68
2023/03/04 08:26:47;;;;;;;18.40;4.30;;;;;;;4.55;100.00;102533.31;5054175;28;20033;-68
2023/03/04 08:29:17;;;;;;;13.02;4.30;;;;;;;4.76;100.00;102529.03;5053183;28;20025;-68
2023/03/04 08:31:45;;;;;;;19.67;4.47;;;;;;;4.92;100.00;102523.50;5054244;28;20021;-68
2023/03/04 08:34:11;;;;;;;;;;;;;;;5.03;100.00;102524.34;5054163;28;20103;-68
2023/03/04 08:36:37;;;;;;;11.23;3.93;;;;;;;5.19;99.19;102532.47;5053402;28;19955;-68
2023/03/04 08:39:03;;;;;;;13.85;3.85;;;;;;;5.24;98.99;102532.81;5053571;28;20037;-68
2023/03/04 08:41:29;;;;;;;13.50;3.70;;;;;;;5.37;97.86;102533.00;5052760;28;20025;-68
2023/03/04 08:43:54;;;;;;;16.05;3.97;;;;;;;5.39;96.91;102526.31;5052682;28;20021;-68
2023/03/04 08:46:19;;;;;;;13.32;3.53;;;;;;;5.55;97.91;102530.97;5054008;28;20028;-68
2023/03/04 08:48:45;;;;;;;17.02;4.50;;;;;;;5.40;96.54;102527.25;5053879;28;20033;-68
2023/03/04 08:51:12;;;;;;;17.88;4.22;;;;;;;5.54;96.37;102539.44;5052618;28;20366;-68
2023/03/04 08:53:38;;;;;;;13.32;3.65;;;;;;;5.64;96.61;102537.56;5053563;28;20459;-68
2023/03/04 08:56:05;;;;;;;19.35;3.90;;;;;;;5.55;95.75;102535.19;5052740;28;20024;-68
2023/03/04 08:58:30;;;;;;;16.52;4.47;;;;;;;5.67;95.79;102531.03;5053332;28;20021;-68
2023/03/04 09:00:58;;;;;;;12.10;4.20;;;;;;;5.87;96.80;102532.53;5052993;28;20033;-68
2023/03/04 09:03:24;;;;;;;11.57;3.85;;;;;;;5.96;94.00;102534.03;5053025;28;20108;-68
2023/03/04 09:05:50;;;;;;;14.98;4.03;;;;;;;6.15;94.26;102523.53;5052952;28;20112;-68
2023/03/04 09:08:16;;;;;;;15.95;4.63;;;;;;;6.05;92.92;102521.94;5053240;28;20037;-68
2023/03/04 09:10:41;;;;;;;26.23;5.22;;;;;;;6.02;92.87;102524.28;5052778;28;20033;-68
2023/03/04 09:13:06;;;;;;;16.52;4.63;;;;;;;6.07;93.46;102520.41;5052644;28;20376;-68
2023/03/04 09:15:36;;;;;;;16.05;4.60;;;;;;;6.17;93.28;102522.88;5053483;28;20021;-68
2023/03/04 09:18:02;;;;;;;13.75;4.90;;;;;;;6.34;93.54;102518.09;5052471;28;20025;-68
2023/03/04 09:20:29;;;;;;;13.13;4.25;;;;;;;6.35;91.99;102512.19;5052857;28;20536;-67
2023/03/04 09:22:54;;;;;;;11.50;4.30;;;;;;;6.37;91.38;102508.97;5052948;28;20031;-68
2023/03/04 09:25:20;;;;;;;8.52;3.53;;;;;;;6.52;90.59;102501.53;5052552;28;20028;-68
2023/03/04 09:27:45;;;;;;;12.70;4.00;;;;;;;6.46;88.39;102500.19;5052736;28;20025;-68
2023/03/04 09:30:11;;;;;;;12.65;4.20;;;;;;;6.86;89.90;102498.81;5052728;28;20108;-68
2023/03/04 09:32:36;;;;;;;13.13;3.95;;;;;;;6.92;88.07;102494.13;5052478;28;20045;-68
2023/03/04 09:35:02;;;;;;;9.32;3.47;;;;;;;7.16;87.86;102488.06;5052642;28;20484;-68
2023/03/04 09:37:27;;;;;;;11.20;3.83;;;;;;;7.21;85.52;102495.28;5053059;28;20380;-67
2023/03/04 09:39:53;;;;;;;11.52;3.88;;;;;;;7.22;85.63;102497.06;5052028;28;20036;-68
2023/03/04 09:42:29;;;;;;;11.63;3.72;;;;;;;7.16;86.78;102499.19;5052735;28;20108;-67
2023/03/04 09:44:55;;;;;;;9.93;3.10;;;;;;;7.21;85.72;102496.97;5052613;28;20425;-68
2023/03/04 09:47:22;;;;;;;6.93;3.05;;;;;;;7.26;85.85;102498.19;5051864;28;20472;-67
2023/03/04 09:49:56;;;;;;;11.93;3.08;;;;;;;7.08;85.08;102495.22;5052870;28;20025;-68
2023/03/04 09:52:49;;;;;;;11.93;3.55;;;;;;;7.17;87.56;102500.09;5051822;28;20401;-68
2023/03/04 09:55:36;;;;;;;11.82;3.50;;;;;;;7.13;87.84;102493.88;5052322;28;20025;-68
2023/03/04 09:58:13;;;;;;;15.27;3.30;;;;;;;6.76;87.19;102496.38;5052481;28;20480;-68
2023/03/04 10:00:44;;;;;;;9.10;2.88;;;;;;;6.58;89.47;102503.63;5051495;28;20064;-67
2023/03/04 10:03:31;;;;;;;8.52;2.90;;;;;;;6.42;89.93;102499.94;5052263;28;20041;-68
2023/03/04 10:06:04;;;;;;;12.50;3.28;;;;;;;6.35;91.02;102501.94;5052457;28;20045;-68
2023/03/04 10:08:48;;;;;;;9.57;3.40;;;;;;;6.36;90.98;102498.63;5051613;28;20029;-67
2023/03/04 10:11:26;;;;;;;16.50;3.92;;;;;;;6.26;89.48;102497.03;5051958;28;20032;-68
2023/03/04 10:13:54;;;;;;;;;;;;;;;6.54;90.59;102497.38;5052480;28;20029;-67
2023/03/04 10:16:24;;;;;;;11.07;3.50;;;;;;;6.75;88.67;102492.94;5052402;28;19920;-67
2023/03/04 10:19:22;;;;;;;13.15;3.75;;;;;;;7.12;88.17;102491.19;5052499;28;20420;-67
2023/03/04 10:21:49;;;;;;;8.20;3.60;;;;;;;7.47;87.46;102493.63;5031922;28;20030;-67
2023/03/04 10:24:17;;;;;;;10.30;3.90;;;;;;;7.77;86.20;102496.50;5052324;28;20033;-67
2023/03/04 10:26:45;;;;;;;11.90;3.83;;;;;;;7.98;83.97;102485.91;5052536;28;20021;-67
2023/03/04 10:29:17;;;;;;;10.80;3.28;;;;;;;7.96;81.68;102492.63;5051220;28;20031;-67
2023/03/04 10:31:44;;;;;;;10.77;3.45;;;;;;;7.72;82.71;102485.94;5052384;28;20112;-67
2023/03/04 10:34:12;;;;;;;11.85;3.95;;;;;;;7.50;83.90;102485.25;5051949;28;20033;-67
2023/03/04 10:37:00;;;;;;;11.35;3.78;;;;;;;7.40;84.62;102488.88;5051628;28;20043;-67
2023/03/04 10:39:34;;;;;;;12.15;3.47;;;;;;;7.03;84.91;102496.56;5052441;28;20064;-67
2023/03/04 10:42:22;;;;;;;8.25;3.10;;;;;;;6.68;86.98;102479.56;5051323;28;20487;-69
2023/03/04 10:44:59;;;;;;;10.77;4.13;;;;;;;6.44;91.18;102477.00;5051929;28;20025;-68
2023/03/04 10:47:27;;;;;;;9.48;4.00;;;;;;;6.22;91.19;102480.59;5052296;28;20025;-68
2023/03/04 10:49:55;;;;;;;11.10;3.22;;;;;;;6.12;92.21;102480.69;5051270;28;20036;-68
2023/03/04 10:52:45;;;;;;;7.68;2.70;;;;;;;6.16;92.85;102486.91;5052137;28;20032;-68
2023/03/04 10:55:16;;;;;;;9.45;2.97;;;;;;;6.09;94.41;102481.34;5051891;28;20112;-68
2023/03/04 10:57:47;;;;;;;5.05;2.10;;;;;;;6.09;95.19;102483.00;5051156;28;20029;-68
2023/03/04 11:00:15;;;;;;;11.32;2.83;;;;;;;6.02;95.15;102484.22;5051988;28;20032;-68
2023/03/04 11:02:40;;;;;;;5.25;2.25;;;;;;;6.01;95.41;102479.00;5051251;28;20040;-68
2023/03/04 11:05:20;;;;;;;11.00;3.17;;;;;;;5.92;96.39;102482.59;5052678;28;20102;-68
2023/03/04 11:07:53;;;;;;;8.77;3.03;;;;;;;5.76;97.12;102472.00;5055506;28;20232;-67
2023/03/04 11:10:35;;;;;;;7.35;3.30;;;;;;;5.79;98.42;102474.78;5055263;28;20033;-68
2023/03/04 11:13:16;;;;;;;8.15;2.97;;;;;;;5.77;98.18;102473.75;5055075;28;20067;-68
2023/03/04 11:15:53;;;;;;;7.32;3.10;;;;;;;5.83;98.34;102474.22;5055616;28;20021;-67
2023/03/04 11:18:29;;;;;;;9.40;3.20;;;;;;;5.89;98.66;102461.03;5054968;28;20115;-67
2023/03/04 11:20:56;;;;;;;7.22;3.05;;;;;;;6.10;98.82;102460.06;5055202;28;20410;-68
2023/03/04 11:23:34;;;;;;;7.53;2.85;;;;;;;6.29;97.71;102457.97;5055597;28;20518;-68